Edgewood, IA (52042)

8:31 PM CDT on August 27, 2014 (GMT -0500)
KIASTRAW2 | Change Station
CLOSE
Current Station
Personal Weather Station
Location: Strawberry Point, IA
Elevation: 1220 ft
Nearby Weather Stations

Elev 1220 ft 42.68 °N, 91.53 °W | Updated 3 minutes ago

Partly Cloudy
Partly Cloudy
68.0 °F
Feels Like 68.0 °F
N
3.0
Wind Variable Wind from NNE
Gusts 3.0 mph

Today
High -- | Low -- °F
--% Chance of Precip.
Yesterday
High -- | Low -- °F
Precip. -- in
6:25 AM 7:48 PM
Waxing Crescent, 6% visible
Pressure 30.12 in
Visibility 10.0 miles
Clouds Mostly Cloudy 26000 ft
Dew Point 62 °F
Humidity 81%
Rainfall -999.00 in
Snow Depth Not available.
UV 0 out of 12
Pollen 8.30 out of 12
Air Quality Not available.
Flu Activity Not available.
METAR KOLZ 280115Z AUTO 05004KT 10SM BKN260 19/17 A3012 RMK AO2

More Conditions Fewer Conditions

Pressure 30.12 in
Visibility 10.0 miles
Clouds Mostly Cloudy 26000 ft
Dew Point 62 °F
Humidity 81%
Rainfall -999.00 in
Snow Depth Not available.
UV 0 out of 12
Pollen 8.30 out of 12
Air Quality Not available.
Flu Activity Not available.
METAR KOLZ 280115Z AUTO 05004KT 10SM BKN260 19/17 A3012 RMK AO2

More Conditions Fewer Conditions

10-Day Weather Forecast

Almanac

Astronomy

Aug. 27, 2014 Rise Set
Actual Time 6:25 AM CDT 7:48 PM CDT
Civil Twilight 5:55 AM CDT 8:17 PM CDT
Nautical Twilight 5:20 AM CDT 8:52 PM CDT
Astronomical Twilight 4:42 AM CDT 9:30 PM CDT
Moon 8:25 AM CDT (8/27) 8:36 PM CDT (8/27)
Length of Visible Light 14h 21m
Length of Day
13h 23m
Tomorrow will be 2m 43s shorter.
Waxing Crescent, 6% of the Moon is Illuminated
Today
Waxing Crescent
Sep 2
First Quarter
Sep 8
Full
Sep 15
Last Quarter
Sep 24
New

Today's Extremes

State Highs State Lows

Community

WunderPhotos

Upload Photos

1,747,848 photos uploaded!

Nearby

Snow Depth

Station Depth Elevation
No new snow has been reported.

Earthquake Activity

City Distance Mag. Time & Date
No recent earthquake activity has been reported nearby.
Minimum magnitude displayed is 2.5.

Coastal Water Temperatures

Place Temperature
No Stations Reporting

Nearby Weather Stations